Terminal Aerodrome Forecast
Issued by NWS Charleston, WV

Home | Current Version | Previous Version | Text Only | Print | Product List | Glossary On
Versions: 1 2 3 4 5 6 7 8 9 10 11 12 13 14 15 16 17 18 19 20 21 22 23 24 25
000
FTUS41 KRLX 211725
TAFBKW
TAF
KBKW 211725Z 2118/2218 22010G25KT P6SM FEW035 SCT250
     FM212300 20007KT P6SM SCT070
     FM220100 21006KT P6SM BKN050
     FM220300 22005KT P6SM BKN030
     FM221400 33008G14KT P6SM BKN020
     FM221700 33007KT P6SM SCT070=

USA.gov is the U.S. government's official web portal to all federal, state and local government web resources and services.